aviador You're here:

CYPO Decoded Metar

in
Report Time2018-02-19 11:00:00
UTC Time2018-02-19 12:01:58
Flight Rules vfr VFR
Wind240° at 06 kt
W.Decomp.*RWY 29: 3.9 kt HW 4.6 kt LCW
W.Rank240° ranks 14
Current wind is below 240° avg. (7.0)
Visibility9999 m
Phenomena:N/A
Clouds:N/A
Expected CloudBase > 1,600 ft AGL from Temp-Dew spread
CeilingNone
Temp-39°C
Dew Point-43°C (65% RH)
AAT-45.1°C
QNH1026 hPa
Raw Report
METAR CYPO 191100Z AUTO 24006KT 9SM CLR M39/M43 A3029 RMK SLP273=

Extra information for CYPO:More info

Social comments